createdAt,value
2022-10-17T00:01:28.581Z,101786.94
2022-10-17T00:04:31.405Z,101784.31
2022-10-17T00:07:33.761Z,101788.66
2022-10-17T00:10:36.774Z,101781.75
2022-10-17T00:13:38.967Z,101785.25
2022-10-17T00:16:41.482Z,101787.88
2022-10-17T00:19:43.704Z,101787.91
2022-10-17T00:22:46.204Z,101787.00
2022-10-17T00:25:48.404Z,101793.09
2022-10-17T00:28:51.995Z,101788.81
2022-10-17T00:31:55.965Z,101787.94
2022-10-17T00:34:58.800Z,101780.19
2022-10-17T00:38:01.061Z,101788.00
2022-10-17T00:41:04.044Z,101788.00
2022-10-17T00:44:08.196Z,101787.13
2022-10-17T00:47:13.942Z,101787.13
2022-10-17T00:50:16.639Z,101781.97
2022-10-17T00:53:19.579Z,101791.53
2022-10-17T00:56:21.827Z,101787.22
2022-10-17T00:59:24.901Z,101784.62
2022-10-17T01:02:27.571Z,101785.50
2022-10-17T01:05:30.753Z,101780.31
2022-10-17T01:08:33.079Z,101781.19
2022-10-17T01:11:44.858Z,101779.47
2022-10-17T01:14:54.579Z,101778.59
2022-10-17T01:18:20.395Z,101785.50
2022-10-17T01:21:37.873Z,101786.37
2022-10-17T01:24:52.711Z,101779.47
2022-10-17T01:28:17.090Z,101776.91
2022-10-17T01:31:23.026Z,101774.31
2022-10-17T01:34:39.736Z,101774.34
2022-10-17T01:41:03.362Z,101787.34
2022-10-17T01:44:13.320Z,101781.28
2022-10-17T01:47:20.771Z,101781.28
2022-10-17T01:50:31.097Z,101786.53
2022-10-17T01:53:37.614Z,101791.72
2022-10-17T01:56:41.414Z,101782.19
2022-10-17T01:59:46.420Z,101787.38
2022-10-17T02:02:50.972Z,101786.53
2022-10-17T02:05:53.727Z,101796.03
2022-10-17T02:08:56.514Z,101794.28
2022-10-17T02:12:17.833Z,101791.75
2022-10-17T02:15:23.154Z,101796.06
2022-10-17T02:18:36.451Z,101786.56
2022-10-17T02:21:45.095Z,101789.19
2022-10-17T02:24:52.768Z,101799.56
2022-10-17T02:28:06.530Z,101796.97
2022-10-17T02:31:14.506Z,101799.56
2022-10-17T02:34:22.620Z,101803.88
2022-10-17T02:37:27.959Z,101801.28
2022-10-17T02:40:31.674Z,101803.88
2022-10-17T02:43:36.131Z,101806.50
2022-10-17T02:46:39.956Z,101815.12
2022-10-17T02:49:46.894Z,101813.34
2022-10-17T02:52:55.380Z,101819.41
2022-10-17T02:56:01.797Z,101815.09
2022-10-17T02:59:07.528Z,101817.69
2022-10-17T03:02:10.271Z,101816.81
2022-10-17T03:05:19.199Z,101820.28
2022-10-17T03:08:22.068Z,101822.88
2022-10-17T03:11:24.418Z,101817.72
2022-10-17T03:14:27.193Z,101821.16
2022-10-17T03:17:29.503Z,101828.09
2022-10-17T03:20:32.697Z,101824.62
2022-10-17T03:23:34.920Z,101832.41
2022-10-17T03:26:37.990Z,101843.59
2022-10-17T03:29:40.691Z,101840.16
2022-10-17T03:32:43.422Z,101850.56
2022-10-17T03:35:45.846Z,101838.44
2022-10-17T03:38:48.974Z,101852.28
2022-10-17T03:41:51.790Z,101850.56
2022-10-17T03:44:54.303Z,101854.88
2022-10-17T03:47:56.626Z,101865.25
2022-10-17T03:51:01.202Z,101870.41
2022-10-17T03:54:04.263Z,101873.87
2022-10-17T03:57:07.067Z,101866.94
2022-10-17T04:00:09.675Z,101872.16
2022-10-17T04:03:17.182Z,101875.62
2022-10-17T04:06:21.149Z,101871.28
2022-10-17T04:09:23.786Z,101879.06
2022-10-17T04:12:27.950Z,101880.78
2022-10-17T04:15:30.490Z,101890.31
2022-10-17T04:18:33.477Z,101888.56
2022-10-17T04:21:35.834Z,101886.00
2022-10-17T04:24:38.781Z,101886.00
2022-10-17T04:27:41.297Z,101885.13
2022-10-17T04:30:45.583Z,101894.59
2022-10-17T04:33:49.132Z,101895.47
2022-10-17T04:36:52.127Z,101893.75
2022-10-17T04:39:54.733Z,101901.50
2022-10-17T04:42:57.472Z,101904.13
2022-10-17T04:46:01.583Z,101909.31
2022-10-17T04:49:04.159Z,101901.50
2022-10-17T04:52:06.605Z,101895.50
2022-10-17T04:55:11.008Z,101901.53
2022-10-17T04:58:13.584Z,101908.44
2022-10-17T05:01:21.317Z,101917.91
2022-10-17T05:04:25.364Z,101918.78
2022-10-17T05:07:27.993Z,101911.87
2022-10-17T05:10:31.116Z,101912.75
2022-10-17T05:13:33.770Z,101917.06
2022-10-17T05:16:36.066Z,101917.06
2022-10-17T05:19:38.619Z,101923.09
2022-10-17T05:22:42.212Z,101928.28
2022-10-17T05:25:45.536Z,101933.47
2022-10-17T05:28:47.992Z,101937.78
2022-10-17T05:31:51.656Z,101943.84
2022-10-17T05:34:54.012Z,101953.38
2022-10-17T05:37:58.207Z,101955.09
2022-10-17T05:41:01.894Z,101957.69
2022-10-17T05:44:11.509Z,101962.88
2022-10-17T05:47:14.215Z,101963.75
2022-10-17T05:50:17.457Z,101965.50
2022-10-17T05:53:20.196Z,101975.87
2022-10-17T05:56:23.098Z,101975.03
2022-10-17T05:59:26.457Z,101978.50
2022-10-17T06:02:29.509Z,101981.94
2022-10-17T06:05:35.012Z,101987.13
2022-10-17T06:08:38.564Z,101991.44
2022-10-17T06:11:41.441Z,101994.88
2022-10-17T06:14:43.744Z,101998.31
2022-10-17T06:17:47.603Z,102000.88
2022-10-17T06:20:50.105Z,102004.22
2022-10-17T06:23:53.408Z,102015.44
2022-10-17T06:26:57.077Z,102017.97
2022-10-17T06:29:59.699Z,102016.16
2022-10-17T06:33:05.544Z,102022.16
2022-10-17T06:36:09.924Z,102029.87
2022-10-17T06:39:12.256Z,102042.81
2022-10-17T06:42:15.655Z,102044.41
2022-10-17T06:45:19.069Z,102043.44
2022-10-17T06:48:22.035Z,102048.47
2022-10-17T06:51:24.550Z,102050.13
2022-10-17T06:54:28.159Z,102061.25
2022-10-17T06:57:31.188Z,102054.16
2022-10-17T07:00:34.616Z,102057.44
2022-10-17T07:03:37.991Z,102060.81
2022-10-17T07:06:40.913Z,102065.84
2022-10-17T07:09:43.728Z,102075.28
2022-10-17T07:12:46.548Z,102079.47
2022-10-17T07:15:48.856Z,102074.88
2022-10-17T07:18:52.632Z,102072.03
2022-10-17T07:21:55.057Z,102078.97
2022-10-17T07:24:57.599Z,102077.00
2022-10-17T07:28:00.352Z,102074.16
2022-10-17T07:31:05.661Z,102079.03
2022-10-17T07:34:08.306Z,102075.47
2022-10-17T07:37:11.890Z,102079.62
2022-10-17T07:40:14.992Z,102088.91
2022-10-17T07:43:18.787Z,102075.66
2022-10-17T07:46:21.078Z,102086.81
2022-10-17T07:49:23.934Z,102083.97
2022-10-17T07:52:27.183Z,102084.81
2022-10-17T07:55:30.491Z,102085.53
2022-10-17T07:58:32.899Z,102085.31
2022-10-17T08:01:35.477Z,102083.41
2022-10-17T08:04:39.128Z,102081.72
2022-10-17T08:07:41.841Z,102089.94
2022-10-17T08:10:44.387Z,102102.44
2022-10-17T08:13:46.661Z,102104.28
2022-10-17T08:16:49.149Z,102103.84
2022-10-17T08:19:51.392Z,102102.91
2022-10-17T08:23:03.575Z,102107.97
2022-10-17T08:26:08.154Z,102104.37
2022-10-17T08:29:14.649Z,102100.38
2022-10-17T08:32:16.896Z,102102.75
2022-10-17T08:35:19.474Z,102106.34
2022-10-17T08:38:23.314Z,102104.06
2022-10-17T08:41:38.805Z,102103.94
2022-10-17T08:44:44.087Z,102099.59
2022-10-17T08:47:48.646Z,102106.47
2022-10-17T08:51:09.399Z,102094.75
2022-10-17T08:54:16.864Z,102100.53
2022-10-17T08:57:19.069Z,102106.88
2022-10-17T09:00:22.347Z,102101.25
2022-10-17T09:03:27.472Z,102097.63
2022-10-17T09:06:35.468Z,102095.59
2022-10-17T09:09:38.123Z,102095.19
2022-10-17T09:13:06.837Z,102095.56
2022-10-17T09:16:25.409Z,102091.88
2022-10-17T09:19:33.722Z,102091.13
2022-10-17T09:22:49.812Z,102091.59
2022-10-17T09:25:58.211Z,102085.22
2022-10-17T09:29:01.105Z,102096.28
2022-10-17T09:32:11.241Z,102087.22
2022-10-17T09:35:17.384Z,102083.41
2022-10-17T09:38:21.443Z,102087.22
2022-10-17T09:41:56.113Z,102088.38
2022-10-17T09:44:52.976Z,102081.78
2022-10-17T09:48:30.610Z,102083.00
2022-10-17T09:51:33.221Z,102070.81
2022-10-17T09:54:46.617Z,102083.34
2022-10-17T09:57:54.178Z,102079.78
2022-10-17T10:01:16.425Z,102081.00
2022-10-17T10:04:20.916Z,102085.22
2022-10-17T10:07:28.990Z,102080.50
2022-10-17T10:10:32.605Z,102084.13
2022-10-17T10:13:35.236Z,102073.63
2022-10-17T10:16:42.388Z,102077.03
2022-10-17T10:19:50.102Z,102072.03
2022-10-17T10:23:05.701Z,102071.53
2022-10-17T10:26:22.304Z,102070.37
2022-10-17T10:29:25.065Z,102076.03
2022-10-17T10:32:29.018Z,102075.78
2022-10-17T10:35:33.406Z,102064.00
2022-10-17T10:38:39.343Z,102062.31
2022-10-17T10:41:48.283Z,102065.19
2022-10-17T10:44:51.600Z,102056.13
2022-10-17T10:47:55.136Z,102064.28
2022-10-17T10:50:59.912Z,102059.75
2022-10-17T10:54:22.808Z,102060.03
2022-10-17T10:57:27.667Z,102058.66
2022-10-17T11:00:32.461Z,102054.75
2022-10-17T11:04:01.078Z,102048.03
2022-10-17T11:07:14.285Z,102050.41
2022-10-17T11:10:52.300Z,102048.91
2022-10-17T11:14:05.054Z,102051.50
2022-10-17T11:17:19.683Z,102044.63
2022-10-17T11:20:31.914Z,102033.63
2022-10-17T11:23:34.110Z,102038.59
2022-10-17T11:26:40.572Z,102030.25
2022-10-17T11:29:44.368Z,102036.03
2022-10-17T11:32:49.835Z,102031.13
2022-10-17T11:35:53.333Z,102019.09
2022-10-17T11:38:59.078Z,102020.41
2022-10-17T11:42:09.644Z,102019.56
2022-10-17T11:45:15.188Z,102025.50
2022-10-17T11:48:21.253Z,102018.66
2022-10-17T11:54:51.004Z,102013.13
2022-10-17T11:57:56.561Z,102013.03
2022-10-17T12:01:17.797Z,102000.81
2022-10-17T12:04:55.804Z,101994.22
2022-10-17T12:08:05.696Z,101999.06
2022-10-17T12:11:14.492Z,102004.00
2022-10-17T12:14:35.091Z,102006.97
2022-10-17T12:17:41.362Z,101993.44
2022-10-17T12:20:43.708Z,101987.69
2022-10-17T12:23:53.942Z,101988.22
2022-10-17T12:27:18.713Z,101983.94
2022-10-17T12:30:25.703Z,101979.72
2022-10-17T12:33:27.964Z,101975.91
2022-10-17T12:36:30.467Z,101974.22
2022-10-17T12:39:33.470Z,101976.13
2022-10-17T12:42:45.943Z,101971.66
2022-10-17T12:45:48.305Z,101973.50
2022-10-17T12:49:01.392Z,101967.81
2022-10-17T12:52:06.613Z,101969.16
2022-10-17T12:55:14.376Z,101968.16
2022-10-17T12:58:17.236Z,101968.00
2022-10-17T13:01:32.464Z,101963.78
2022-10-17T13:04:36.276Z,101960.97
2022-10-17T13:07:41.520Z,101960.72
2022-10-17T13:10:47.904Z,101961.84
2022-10-17T13:13:53.528Z,101963.25
2022-10-17T13:16:57.694Z,101960.44
2022-10-17T13:20:00.673Z,101955.63
2022-10-17T13:23:03.806Z,101949.53
2022-10-17T13:26:20.016Z,101946.97
2022-10-17T13:29:25.603Z,101950.62
2022-10-17T13:32:35.823Z,101948.06
2022-10-17T13:39:07.644Z,101947.81
2022-10-17T13:42:25.914Z,101946.28
2022-10-17T13:45:33.533Z,101942.72
2022-10-17T13:48:37.349Z,101948.94
2022-10-17T13:51:42.844Z,101941.94
2022-10-17T13:54:48.257Z,101940.31
2022-10-17T13:57:52.493Z,101939.84
2022-10-17T14:00:55.001Z,101940.91
2022-10-17T14:04:08.371Z,101943.25
2022-10-17T14:08:09.965Z,101938.97
2022-10-17T14:11:28.494Z,101931.72
2022-10-17T14:14:41.681Z,101928.53
2022-10-17T14:18:08.324Z,101926.84
2022-10-17T14:24:35.224Z,101925.63
2022-10-17T14:27:52.097Z,101927.94
2022-10-17T14:31:08.783Z,101919.59
2022-10-17T14:34:21.978Z,101926.28
2022-10-17T14:37:24.548Z,101925.94
2022-10-17T14:40:27.923Z,101933.22
2022-10-17T14:43:31.024Z,101926.47
2022-10-17T14:46:35.208Z,101918.47
2022-10-17T14:49:39.993Z,101926.25
2022-10-17T14:52:43.148Z,101922.47
2022-10-17T14:55:55.652Z,101918.78
2022-10-17T14:58:57.954Z,101918.75
2022-10-17T15:02:01.632Z,101915.34
2022-10-17T15:05:03.983Z,101916.03
2022-10-17T15:08:13.618Z,101919.84
2022-10-17T15:11:15.938Z,101921.41
2022-10-17T15:14:18.827Z,101924.47
2022-10-17T15:17:23.470Z,101926.03
2022-10-17T15:20:28.162Z,101928.31
2022-10-17T15:23:30.351Z,101932.16
2022-10-17T15:26:34.175Z,101927.09
2022-10-17T15:29:36.663Z,101929.59
2022-10-17T15:32:39.183Z,101929.16
2022-10-17T15:35:42.640Z,101931.56
2022-10-17T15:38:45.098Z,101923.38
2022-10-17T15:41:48.237Z,101936.22
2022-10-17T15:44:50.846Z,101935.84
2022-10-17T15:47:58.476Z,101936.41
2022-10-17T15:51:01.003Z,101940.34
2022-10-17T15:54:04.850Z,101945.22
2022-10-17T15:57:14.844Z,101948.34
2022-10-17T16:00:19.060Z,101953.16
2022-10-17T16:06:29.131Z,101955.75
2022-10-17T16:09:31.647Z,101950.97
2022-10-17T16:12:37.945Z,101957.28
2022-10-17T16:15:40.461Z,101961.16
2022-10-17T16:18:42.739Z,101956.28
2022-10-17T16:21:45.409Z,101966.16
2022-10-17T16:24:47.665Z,101963.88
2022-10-17T16:27:51.332Z,101974.69
2022-10-17T16:30:53.617Z,101974.06
2022-10-17T16:33:57.103Z,101971.72
2022-10-17T16:36:59.314Z,101975.47
2022-10-17T16:40:02.148Z,101964.28
2022-10-17T16:43:04.711Z,101977.53
2022-10-17T16:46:07.320Z,101982.94
2022-10-17T16:49:10.088Z,101982.25
2022-10-17T16:52:13.004Z,101984.22
2022-10-17T16:55:18.712Z,101986.00
2022-10-17T16:58:21.497Z,101986.22
2022-10-17T17:01:24.458Z,101995.19
2022-10-17T17:04:27.121Z,101991.91
2022-10-17T17:07:30.199Z,101991.25
2022-10-17T17:10:33.403Z,101994.00
2022-10-17T17:13:36.043Z,101995.94
2022-10-17T17:16:38.644Z,101985.53
2022-10-17T17:19:40.875Z,101999.59
2022-10-17T17:22:43.491Z,101997.09
2022-10-17T17:25:46.078Z,101999.91
2022-10-17T17:28:49.294Z,102005.34
2022-10-17T17:31:51.919Z,102010.75
2022-10-17T17:34:54.498Z,102011.72
2022-10-17T17:37:56.799Z,102004.91
2022-10-17T17:41:00.477Z,102004.22
2022-10-17T17:44:03.155Z,102001.59
2022-10-17T17:47:05.770Z,102000.00
2022-10-17T17:50:08.356Z,101999.34
2022-10-17T17:53:11.925Z,101992.44
2022-10-17T17:56:15.780Z,101989.94
2022-10-17T17:59:18.289Z,101993.56
2022-10-17T18:02:20.662Z,102005.84
2022-10-17T18:05:23.202Z,102004.28
2022-10-17T18:08:25.460Z,102003.47
2022-10-17T18:11:28.345Z,102007.00
2022-10-17T18:14:30.590Z,102009.75
2022-10-17T18:17:33.120Z,102001.09
2022-10-17T18:20:39.315Z,102003.81
2022-10-17T18:23:45.534Z,101998.69
2022-10-17T18:26:47.783Z,101997.03
2022-10-17T18:29:51.189Z,102002.38
2022-10-17T18:32:53.400Z,102001.56
2022-10-17T18:35:58.237Z,102005.09
2022-10-17T18:39:00.951Z,102004.19
2022-10-17T18:42:03.564Z,101999.19
2022-10-17T18:45:06.250Z,102004.50
2022-10-17T18:48:09.976Z,102001.12
2022-10-17T18:51:12.994Z,102008.16
2022-10-17T18:54:20.574Z,102002.94
2022-10-17T18:57:26.013Z,101997.81
2022-10-17T19:00:30.349Z,101997.84
2022-10-17T19:03:32.681Z,101998.75
2022-10-17T19:06:35.901Z,101992.72
2022-10-17T19:09:38.287Z,101997.94
2022-10-17T19:12:40.903Z,101995.44
2022-10-17T19:15:43.212Z,102005.88
2022-10-17T19:18:53.300Z,102003.31
2022-10-17T19:21:56.244Z,102000.75
2022-10-17T19:24:58.760Z,101997.31
2022-10-17T19:28:01.099Z,102005.12
2022-10-17T19:31:05.124Z,102002.63
2022-10-17T19:34:07.402Z,101999.22
2022-10-17T19:37:09.893Z,102007.91
2022-10-17T19:40:12.537Z,101996.69
2022-10-17T19:43:15.032Z,102004.47
2022-10-17T19:46:18.598Z,101998.47
2022-10-17T19:49:21.357Z,101996.78
2022-10-17T19:52:23.574Z,101996.81
2022-10-17T19:55:26.189Z,101989.94
2022-10-17T19:58:28.932Z,101996.06
2022-10-17T20:01:33.101Z,101997.78
2022-10-17T20:04:35.668Z,101996.97
2022-10-17T20:07:41.473Z,102006.56
2022-10-17T20:10:47.333Z,102008.34
2022-10-17T20:13:50.347Z,102009.25
2022-10-17T20:16:52.886Z,102005.84
2022-10-17T20:19:55.234Z,102007.56
2022-10-17T20:22:57.736Z,102008.47
2022-10-17T20:26:13.190Z,102006.78
2022-10-17T20:29:24.099Z,102006.75
2022-10-17T20:32:26.392Z,102010.25
2022-10-17T20:35:28.925Z,102011.12
2022-10-17T20:38:31.570Z,102012.87
2022-10-17T20:41:34.491Z,102013.81
2022-10-17T20:44:36.800Z,102010.34
2022-10-17T20:47:47.121Z,102013.03
2022-10-17T20:50:51.611Z,102015.69
2022-10-17T20:53:54.158Z,102006.19
2022-10-17T20:56:58.733Z,102008.81
2022-10-17T21:00:04.515Z,102007.97
2022-10-17T21:03:07.412Z,102009.75
2022-10-17T21:06:10.243Z,102004.62
2022-10-17T21:09:12.523Z,102015.88
2022-10-17T21:12:21.804Z,102002.09
2022-10-17T21:15:33.461Z,102009.03
2022-10-17T21:18:36.242Z,102006.47
2022-10-17T21:21:40.131Z,101997.81
2022-10-17T21:24:42.656Z,102010.88
2022-10-17T21:27:44.900Z,102010.00
2022-10-17T21:30:47.681Z,102010.91
2022-10-17T21:33:51.357Z,102007.47
2022-10-17T21:36:53.988Z,102005.81
2022-10-17T21:39:56.242Z,102008.44
2022-10-17T21:42:58.750Z,102005.84
2022-10-17T21:46:02.030Z,102004.97
2022-10-17T21:49:04.570Z,102004.09
2022-10-17T21:52:07.242Z,101998.91
2022-10-17T21:55:09.757Z,101997.22
2022-10-17T21:58:11.956Z,102001.53
2022-10-17T22:01:22.027Z,102001.53
2022-10-17T22:04:24.496Z,101999.84
2022-10-17T22:07:26.751Z,101996.37
2022-10-17T22:10:29.522Z,101997.28
2022-10-17T22:13:31.715Z,101989.50
2022-10-17T22:16:34.956Z,101986.03
2022-10-17T22:19:37.131Z,101990.38
2022-10-17T22:22:39.633Z,101986.91
2022-10-17T22:25:41.928Z,101976.56
2022-10-17T22:28:44.399Z,101985.19
2022-10-17T22:31:46.703Z,101986.09
2022-10-17T22:34:49.181Z,101989.56
2022-10-17T22:37:54.057Z,101992.16
2022-10-17T22:40:56.572Z,101989.59
2022-10-17T22:43:58.777Z,101990.44
2022-10-17T22:47:01.290Z,101990.44
2022-10-17T22:50:03.624Z,101992.19
2022-10-17T22:53:06.101Z,101986.16
2022-10-17T22:56:10.922Z,101988.75
2022-10-17T22:59:13.488Z,101986.19
2022-10-17T23:02:15.855Z,101987.91
2022-10-17T23:05:18.348Z,101979.25
2022-10-17T23:08:24.042Z,101975.81
2022-10-17T23:11:26.689Z,101974.06
2022-10-17T23:14:28.875Z,101972.34
2022-10-17T23:17:31.315Z,101977.56
2022-10-17T23:20:33.570Z,101971.50
2022-10-17T23:23:36.118Z,101972.34
2022-10-17T23:26:38.317Z,101962.88
2022-10-17T23:29:41.009Z,101970.62
2022-10-17T23:32:43.262Z,101962.84
2022-10-17T23:35:45.787Z,101967.16
2022-10-17T23:38:48.643Z,101961.12
2022-10-17T23:41:51.093Z,101953.34
2022-10-17T23:44:53.337Z,101958.53
2022-10-17T23:47:55.808Z,101954.22
2022-10-17T23:50:58.212Z,101949.91
2022-10-17T23:54:00.688Z,101952.50
2022-10-17T23:57:03.062Z,101955.09
